createdAt,value
2023-01-19T00:01:44.455Z,19.00
2023-01-19T00:14:22.165Z,19.10
2023-01-19T00:20:01.261Z,16.87
2023-01-19T00:25:05.599Z,16.57
2023-01-19T00:30:10.130Z,16.37
2023-01-19T00:35:13.651Z,17.63
2023-01-19T00:40:17.744Z,18.67
2023-01-19T01:47:45.313Z,18.60
2023-01-19T01:53:11.565Z,19.00
2023-01-19T01:58:17.013Z,18.47
2023-01-19T02:03:21.179Z,18.23
2023-01-19T02:08:49.155Z,18.20
2023-01-19T02:14:35.717Z,16.70
2023-01-19T02:20:35.854Z,17.97
2023-01-19T03:01:22.508Z,19.77
2023-01-19T03:06:54.152Z,18.03
2023-01-19T03:12:23.511Z,17.20
2023-01-19T03:17:30.671Z,17.93
2023-01-19T03:22:35.480Z,17.97
2023-01-19T03:27:41.871Z,19.77
2023-01-19T03:32:54.151Z,18.17
2023-01-19T03:38:04.496Z,17.93
2023-01-19T03:43:11.072Z,19.30
2023-01-19T03:48:14.453Z,18.63
2023-01-19T03:53:18.601Z,20.53
2023-01-19T03:58:23.021Z,21.80
2023-01-19T04:03:26.091Z,20.53
2023-01-19T04:08:29.590Z,17.70
2023-01-19T04:13:33.313Z,24.83
2023-01-19T04:18:51.361Z,23.90
2023-01-19T04:24:07.011Z,23.97
2023-01-19T04:29:10.915Z,23.33
2023-01-19T04:34:14.303Z,19.10
2023-01-19T04:39:31.983Z,18.93
2023-01-19T04:44:42.347Z,19.23
2023-01-19T04:49:46.071Z,18.60
2023-01-19T04:54:49.913Z,19.83
2023-01-19T04:59:53.572Z,20.50
2023-01-19T05:04:57.059Z,22.43
2023-01-19T05:10:00.637Z,20.97
2023-01-19T05:15:05.062Z,19.77
2023-01-19T05:20:10.568Z,21.63
2023-01-19T05:25:14.101Z,19.80
2023-01-19T05:30:17.651Z,20.17
2023-01-19T05:35:35.377Z,18.37
2023-01-19T05:40:39.752Z,20.13
2023-01-19T05:45:43.471Z,22.30
2023-01-19T05:50:50.055Z,19.90
2023-01-19T05:55:56.600Z,22.47
2023-01-19T06:01:06.207Z,27.03
2023-01-19T06:06:09.979Z,28.87
2023-01-19T06:11:13.454Z,35.07
2023-01-19T06:16:18.760Z,25.90
2023-01-19T06:21:22.915Z,26.33
2023-01-19T06:26:26.967Z,24.47
2023-01-19T06:31:30.334Z,23.93
2023-01-19T06:36:34.297Z,24.23
2023-01-19T06:41:37.895Z,23.43
2023-01-19T06:46:41.159Z,24.20
2023-01-19T06:51:44.776Z,24.47
2023-01-19T06:56:48.255Z,22.30
2023-01-19T07:01:52.293Z,22.60
2023-01-19T07:06:55.921Z,23.73
2023-01-19T07:11:59.536Z,23.77
2023-01-19T07:17:03.547Z,21.33
2023-01-19T07:22:07.297Z,22.20
2023-01-19T07:27:12.037Z,25.53
2023-01-19T07:32:15.350Z,24.13
2023-01-19T07:37:18.536Z,23.47
2023-01-19T07:42:22.408Z,24.13
2023-01-19T07:47:28.951Z,24.73
2023-01-19T07:52:33.839Z,23.73
2023-01-19T07:57:37.423Z,24.07
2023-01-19T08:02:44.737Z,25.00
2023-01-19T08:07:53.262Z,27.17
2023-01-19T08:13:07.709Z,28.07
2023-01-19T08:18:12.293Z,23.70
2023-01-19T08:23:15.789Z,26.93
2023-01-19T08:28:19.490Z,26.27
2023-01-19T08:33:24.545Z,22.53
2023-01-19T08:38:28.008Z,22.87
2023-01-19T08:43:35.439Z,26.40
2023-01-19T08:48:39.993Z,26.20
2023-01-19T08:53:43.710Z,24.00
2023-01-19T08:58:53.605Z,26.03
2023-01-19T09:04:07.900Z,26.03
2023-01-19T09:09:13.999Z,24.37
2023-01-19T09:14:17.083Z,28.13
2023-01-19T09:19:21.111Z,26.33
2023-01-19T09:24:24.700Z,23.83
2023-01-19T09:29:28.268Z,24.77
2023-01-19T09:34:34.576Z,27.00
2023-01-19T09:39:37.728Z,27.07
2023-01-19T09:44:43.038Z,29.07
2023-01-19T09:50:27.329Z,29.23
2023-01-19T09:55:31.951Z,29.87
2023-01-19T10:00:35.496Z,31.53
2023-01-19T10:06:05.900Z,31.07
2023-01-19T10:11:42.129Z,30.67
2023-01-19T10:17:06.213Z,35.67
2023-01-19T10:22:25.625Z,28.67
2023-01-19T10:27:35.207Z,30.10
2023-01-19T10:32:40.070Z,27.83
2023-01-19T10:37:45.599Z,31.33
2023-01-19T10:42:49.128Z,33.07
2023-01-19T10:47:55.543Z,35.33
2023-01-19T10:53:05.202Z,37.93
2023-01-19T10:58:30.838Z,35.03
2023-01-19T11:03:34.301Z,33.00
2023-01-19T11:08:37.727Z,36.93
2023-01-19T11:13:42.816Z,34.77
2023-01-19T11:18:47.899Z,38.40
2023-01-19T11:23:59.720Z,38.77
2023-01-19T11:29:05.329Z,35.97
2023-01-19T11:34:32.470Z,38.47
2023-01-19T11:39:53.801Z,37.03
2023-01-19T11:45:06.523Z,34.37
2023-01-19T11:50:44.815Z,37.47
2023-01-19T11:55:55.657Z,35.50
2023-01-19T12:01:06.492Z,32.20
2023-01-19T12:06:36.067Z,33.97
2023-01-19T12:12:04.784Z,32.67
2023-01-19T12:17:14.486Z,33.37
2023-01-19T12:22:19.902Z,33.63
2023-01-19T12:27:34.096Z,36.20
2023-01-19T12:32:37.876Z,35.30
2023-01-19T12:37:43.749Z,38.30
2023-01-19T12:42:57.775Z,35.67
2023-01-19T12:48:06.826Z,39.83
2023-01-19T12:53:20.100Z,36.27
2023-01-19T12:58:26.277Z,37.70
2023-01-19T13:03:29.695Z,40.07
2023-01-19T13:08:54.860Z,40.47
2023-01-19T13:14:01.392Z,38.73
2023-01-19T13:19:07.305Z,48.73
2023-01-19T13:24:19.687Z,40.10
2023-01-19T13:29:32.068Z,39.03
2023-01-19T13:34:45.675Z,37.53
2023-01-19T13:39:52.718Z,35.77
2023-01-19T13:45:10.331Z,34.43
2023-01-19T13:50:25.223Z,33.13
2023-01-19T13:55:31.453Z,34.07
2023-01-19T14:00:35.208Z,40.57
2023-01-19T14:05:40.653Z,31.40
2023-01-19T14:10:46.854Z,32.27
2023-01-19T14:15:54.004Z,34.77
2023-01-19T14:20:59.183Z,32.50
2023-01-19T14:26:03.054Z,33.43
2023-01-19T14:31:22.970Z,33.20
2023-01-19T14:36:39.742Z,34.77
2023-01-19T14:41:48.769Z,32.50
2023-01-19T14:46:52.990Z,31.17
2023-01-19T14:51:56.828Z,32.60
2023-01-19T14:57:00.368Z,32.13
2023-01-19T15:02:03.995Z,30.37
2023-01-19T15:07:12.728Z,30.67
2023-01-19T15:12:18.199Z,27.40
2023-01-19T15:17:28.760Z,27.50
2023-01-19T15:22:31.952Z,27.50
2023-01-19T15:27:35.838Z,26.73
2023-01-19T15:32:44.409Z,25.10
2023-01-19T15:37:49.472Z,24.37
2023-01-19T15:42:52.749Z,25.30
2023-01-19T15:47:56.677Z,24.80
2023-01-19T15:53:00.323Z,26.60
2023-01-19T15:58:03.621Z,27.30
2023-01-19T16:03:07.400Z,28.40
2023-01-19T16:08:12.061Z,32.40
2023-01-19T16:13:15.611Z,30.63
2023-01-19T16:18:25.919Z,30.70
2023-01-19T16:23:34.166Z,32.10
2023-01-19T16:28:46.679Z,34.10
2023-01-19T16:33:55.344Z,38.87
2023-01-19T16:39:02.823Z,35.57
2023-01-19T16:44:07.473Z,35.47
2023-01-19T16:49:17.019Z,32.73
2023-01-19T16:54:26.679Z,37.70
2023-01-19T16:59:30.610Z,35.47
2023-01-19T17:04:36.676Z,36.07
2023-01-19T17:09:40.752Z,33.50
2023-01-19T17:14:45.810Z,33.57
2023-01-19T17:19:50.601Z,39.80
2023-01-19T17:24:55.977Z,36.00
2023-01-19T17:30:01.840Z,34.80
2023-01-19T17:35:07.189Z,35.97
2023-01-19T17:40:14.139Z,34.17
2023-01-19T17:45:18.602Z,39.10
2023-01-19T17:50:24.274Z,41.00
2023-01-19T17:55:29.185Z,35.67
2023-01-19T18:00:36.422Z,33.97
2023-01-19T18:05:43.818Z,33.73
2023-01-19T18:11:03.182Z,34.60
2023-01-19T18:16:11.280Z,38.13
2023-01-19T18:21:17.102Z,38.47
2023-01-19T18:26:24.730Z,35.87
2023-01-19T18:31:31.912Z,35.90
2023-01-19T18:36:40.642Z,37.47
2023-01-19T18:41:46.484Z,41.07
2023-01-19T18:46:52.516Z,45.63
2023-01-19T18:51:58.340Z,38.60
2023-01-19T18:57:02.926Z,36.23
2023-01-19T19:02:10.101Z,40.20
2023-01-19T19:07:15.820Z,39.53
2023-01-19T19:12:22.365Z,40.50
2023-01-19T19:17:27.772Z,38.80
2023-01-19T19:22:34.005Z,35.00
2023-01-19T19:27:42.722Z,34.80
2023-01-19T19:33:01.523Z,31.47
2023-01-19T19:38:07.504Z,28.93
2023-01-19T19:43:12.474Z,29.03
2023-01-19T19:48:17.612Z,26.63
2023-01-19T19:53:22.954Z,24.70
2023-01-19T19:58:29.883Z,23.97
2023-01-19T20:03:36.927Z,21.87
2023-01-19T20:08:44.367Z,20.30
2023-01-19T20:13:53.053Z,20.27
2023-01-19T20:19:02.908Z,21.33
2023-01-19T20:24:11.221Z,20.07
2023-01-19T20:29:17.361Z,20.10
2023-01-19T20:34:27.082Z,18.37
2023-01-19T20:39:35.587Z,17.80
2023-01-19T20:44:45.290Z,17.57
2023-01-19T20:49:50.070Z,16.97
2023-01-19T20:54:58.501Z,17.80
2023-01-19T21:00:09.553Z,17.50
2023-01-19T21:05:14.315Z,16.73
2023-01-19T21:10:19.280Z,16.00
2023-01-19T21:15:26.918Z,16.30
2023-01-19T21:20:31.187Z,14.90
2023-01-19T21:25:37.841Z,14.20
2023-01-19T21:30:43.868Z,13.50
2023-01-19T21:35:57.891Z,13.67
2023-01-19T21:41:10.794Z,13.63
2023-01-19T21:46:20.851Z,12.13
2023-01-19T21:51:24.375Z,14.73
2023-01-19T21:56:30.786Z,11.60
2023-01-19T22:01:35.539Z,12.17
2023-01-19T22:06:39.527Z,12.80
2023-01-19T22:11:42.923Z,11.57
2023-01-19T22:16:46.218Z,12.40
2023-01-19T22:21:50.492Z,13.57
2023-01-19T22:26:54.107Z,13.37
2023-01-19T22:31:59.303Z,11.43
2023-01-19T22:37:03.546Z,11.83
2023-01-19T22:42:06.760Z,12.20
2023-01-19T22:47:11.091Z,13.73
2023-01-19T22:52:14.235Z,14.03
2023-01-19T22:57:17.682Z,13.47
2023-01-19T23:02:21.050Z,13.97
2023-01-19T23:07:24.650Z,13.33
2023-01-19T23:12:28.108Z,14.77
2023-01-19T23:17:31.615Z,16.10
2023-01-19T23:22:35.250Z,15.70
2023-01-19T23:27:38.362Z,16.60
2023-01-19T23:32:48.543Z,17.43
2023-01-19T23:37:52.145Z,15.70
2023-01-19T23:42:55.811Z,19.57
2023-01-19T23:47:59.270Z,18.37
2023-01-19T23:53:02.713Z,15.70
2023-01-19T23:58:06.129Z,17.43
